sensor_id;sensor_type;location;lat;lon;timestamp;P1;durP1;ratioP1;P2;durP2;ratioP2
22579;SDS011;11456;47.030;15.396;2023-12-20T00:01:06;28.17;;;11.98;;
22579;SDS011;11456;47.030;15.396;2023-12-20T00:03:33;27.30;;;11.85;;
22579;SDS011;11456;47.030;15.396;2023-12-20T00:06:08;30.98;;;12.23;;
22579;SDS011;11456;47.030;15.396;2023-12-20T00:08:36;26.88;;;11.75;;
22579;SDS011;11456;47.030;15.396;2023-12-20T00:11:05;23.92;;;10.75;;
22579;SDS011;11456;47.030;15.396;2023-12-20T00:13:32;24.20;;;10.10;;
22579;SDS011;11456;47.030;15.396;2023-12-20T00:15:58;20.00;;;9.73;;
22579;SDS011;11456;47.030;15.396;2023-12-20T00:18:25;23.15;;;9.73;;
22579;SDS011;11456;47.030;15.396;2023-12-20T00:20:52;19.40;;;9.55;;
22579;SDS011;11456;47.030;15.396;2023-12-20T00:23:18;27.95;;;10.90;;
22579;SDS011;11456;47.030;15.396;2023-12-20T00:25:45;22.15;;;10.30;;
22579;SDS011;11456;47.030;15.396;2023-12-20T00:28:12;24.08;;;11.15;;
22579;SDS011;11456;47.030;15.396;2023-12-20T00:30:39;24.83;;;11.50;;
22579;SDS011;11456;47.030;15.396;2023-12-20T00:33:06;31.05;;;10.65;;
22579;SDS011;11456;47.030;15.396;2023-12-20T00:35:32;29.52;;;11.82;;
22579;SDS011;11456;47.030;15.396;2023-12-20T00:37:59;22.20;;;11.60;;
22579;SDS011;11456;47.030;15.396;2023-12-20T00:40:26;23.27;;;11.68;;
22579;SDS011;11456;47.030;15.396;2023-12-20T00:42:52;26.02;;;11.65;;
22579;SDS011;11456;47.030;15.396;2023-12-20T00:45:19;26.52;;;11.77;;
22579;SDS011;11456;47.030;15.396;2023-12-20T00:47:46;32.10;;;12.18;;
22579;SDS011;11456;47.030;15.396;2023-12-20T00:50:13;25.52;;;11.90;;
22579;SDS011;11456;47.030;15.396;2023-12-20T00:52:40;26.63;;;11.80;;
22579;SDS011;11456;47.030;15.396;2023-12-20T00:55:06;29.63;;;12.18;;
22579;SDS011;11456;47.030;15.396;2023-12-20T00:57:34;26.70;;;11.57;;
22579;SDS011;11456;47.030;15.396;2023-12-20T01:00:01;25.98;;;11.98;;
22579;SDS011;11456;47.030;15.396;2023-12-20T01:02:28;30.90;;;13.32;;
22579;SDS011;11456;47.030;15.396;2023-12-20T01:04:55;29.45;;;12.48;;
22579;SDS011;11456;47.030;15.396;2023-12-20T01:07:22;23.98;;;12.10;;
22579;SDS011;11456;47.030;15.396;2023-12-20T01:09:48;26.33;;;12.15;;
22579;SDS011;11456;47.030;15.396;2023-12-20T01:12:15;24.17;;;12.15;;
22579;SDS011;11456;47.030;15.396;2023-12-20T01:14:42;27.00;;;11.65;;
22579;SDS011;11456;47.030;15.396;2023-12-20T01:17:08;22.52;;;11.70;;
22579;SDS011;11456;47.030;15.396;2023-12-20T01:19:35;31.00;;;12.65;;
22579;SDS011;11456;47.030;15.396;2023-12-20T01:22:03;28.92;;;12.50;;
22579;SDS011;11456;47.030;15.396;2023-12-20T01:24:30;27.63;;;12.32;;
22579;SDS011;11456;47.030;15.396;2023-12-20T01:26:56;23.50;;;11.70;;
22579;SDS011;11456;47.030;15.396;2023-12-20T01:29:23;24.40;;;11.15;;
22579;SDS011;11456;47.030;15.396;2023-12-20T01:31:50;34.15;;;12.77;;
22579;SDS011;11456;47.030;15.396;2023-12-20T01:34:17;25.40;;;11.95;;
22579;SDS011;11456;47.030;15.396;2023-12-20T01:36:44;28.08;;;12.00;;
22579;SDS011;11456;47.030;15.396;2023-12-20T01:39:11;30.90;;;11.82;;
22579;SDS011;11456;47.030;15.396;2023-12-20T01:41:50;27.75;;;11.98;;
22579;SDS011;11456;47.030;15.396;2023-12-20T01:44:17;25.85;;;12.63;;
22579;SDS011;11456;47.030;15.396;2023-12-20T01:46:44;36.42;;;12.80;;
22579;SDS011;11456;47.030;15.396;2023-12-20T01:49:12;29.27;;;12.90;;
22579;SDS011;11456;47.030;15.396;2023-12-20T01:51:39;24.67;;;11.57;;
22579;SDS011;11456;47.030;15.396;2023-12-20T01:54:06;25.08;;;11.93;;
22579;SDS011;11456;47.030;15.396;2023-12-20T01:56:33;28.83;;;12.55;;
22579;SDS011;11456;47.030;15.396;2023-12-20T01:59:00;27.42;;;12.27;;
22579;SDS011;11456;47.030;15.396;2023-12-20T02:01:27;27.88;;;11.80;;
22579;SDS011;11456;47.030;15.396;2023-12-20T02:03:55;27.13;;;12.38;;
22579;SDS011;11456;47.030;15.396;2023-12-20T02:06:23;27.83;;;12.23;;
22579;SDS011;11456;47.030;15.396;2023-12-20T02:08:55;28.13;;;10.93;;
22579;SDS011;11456;47.030;15.396;2023-12-20T02:11:23;22.40;;;10.80;;
22579;SDS011;11456;47.030;15.396;2023-12-20T02:13:49;25.83;;;11.50;;
22579;SDS011;11456;47.030;15.396;2023-12-20T02:16:16;22.58;;;10.70;;
22579;SDS011;11456;47.030;15.396;2023-12-20T02:18:43;19.80;;;9.98;;
22579;SDS011;11456;47.030;15.396;2023-12-20T02:21:11;27.83;;;10.52;;
22579;SDS011;11456;47.030;15.396;2023-12-20T02:23:37;20.13;;;10.13;;
22579;SDS011;11456;47.030;15.396;2023-12-20T02:26:04;20.02;;;9.85;;
22579;SDS011;11456;47.030;15.396;2023-12-20T02:28:33;18.67;;;9.65;;
22579;SDS011;11456;47.030;15.396;2023-12-20T02:31:00;18.90;;;10.07;;
22579;SDS011;11456;47.030;15.396;2023-12-20T02:33:27;22.38;;;10.00;;
22579;SDS011;11456;47.030;15.396;2023-12-20T02:35:54;22.58;;;10.23;;
22579;SDS011;11456;47.030;15.396;2023-12-20T02:38:20;25.10;;;10.63;;
22579;SDS011;11456;47.030;15.396;2023-12-20T02:40:47;22.48;;;10.25;;
22579;SDS011;11456;47.030;15.396;2023-12-20T02:43:15;21.63;;;10.23;;
22579;SDS011;11456;47.030;15.396;2023-12-20T02:45:42;27.85;;;10.75;;
22579;SDS011;11456;47.030;15.396;2023-12-20T02:48:09;28.85;;;11.02;;
22579;SDS011;11456;47.030;15.396;2023-12-20T02:50:36;24.20;;;10.73;;
22579;SDS011;11456;47.030;15.396;2023-12-20T02:53:03;26.52;;;11.38;;
22579;SDS011;11456;47.030;15.396;2023-12-20T02:55:29;27.08;;;11.45;;
22579;SDS011;11456;47.030;15.396;2023-12-20T02:57:56;22.92;;;10.18;;
22579;SDS011;11456;47.030;15.396;2023-12-20T03:00:23;25.83;;;10.23;;
22579;SDS011;11456;47.030;15.396;2023-12-20T03:02:50;19.13;;;9.93;;
22579;SDS011;11456;47.030;15.396;2023-12-20T03:05:17;22.23;;;10.50;;
22579;SDS011;11456;47.030;15.396;2023-12-20T03:07:43;26.00;;;10.65;;
22579;SDS011;11456;47.030;15.396;2023-12-20T03:10:11;20.88;;;10.00;;
22579;SDS011;11456;47.030;15.396;2023-12-20T03:12:49;21.75;;;10.60;;
22579;SDS011;11456;47.030;15.396;2023-12-20T03:15:16;23.52;;;10.35;;
22579;SDS011;11456;47.030;15.396;2023-12-20T03:17:43;21.90;;;10.48;;
22579;SDS011;11456;47.030;15.396;2023-12-20T03:20:10;24.55;;;10.50;;
22579;SDS011;11456;47.030;15.396;2023-12-20T03:22:37;25.15;;;11.38;;
22579;SDS011;11456;47.030;15.396;2023-12-20T03:25:04;19.92;;;9.60;;
22579;SDS011;11456;47.030;15.396;2023-12-20T03:27:31;25.27;;;11.00;;
22579;SDS011;11456;47.030;15.396;2023-12-20T03:29:57;23.23;;;11.00;;
22579;SDS011;11456;47.030;15.396;2023-12-20T03:32:24;26.83;;;11.35;;
22579;SDS011;11456;47.030;15.396;2023-12-20T03:34:51;25.77;;;13.13;;
22579;SDS011;11456;47.030;15.396;2023-12-20T03:37:18;27.70;;;12.23;;
22579;SDS011;11456;47.030;15.396;2023-12-20T03:39:44;21.42;;;11.05;;
22579;SDS011;11456;47.030;15.396;2023-12-20T03:42:11;20.58;;;10.55;;
22579;SDS011;11456;47.030;15.396;2023-12-20T03:44:39;20.85;;;10.25;;
22579;SDS011;11456;47.030;15.396;2023-12-20T03:47:09;22.60;;;10.63;;
22579;SDS011;11456;47.030;15.396;2023-12-20T03:49:36;20.70;;;10.27;;
22579;SDS011;11456;47.030;15.396;2023-12-20T03:52:05;22.40;;;9.68;;
22579;SDS011;11456;47.030;15.396;2023-12-20T03:54:32;21.33;;;10.48;;
22579;SDS011;11456;47.030;15.396;2023-12-20T03:56:59;22.85;;;10.90;;
22579;SDS011;11456;47.030;15.396;2023-12-20T03:59:25;23.40;;;10.77;;
22579;SDS011;11456;47.030;15.396;2023-12-20T04:01:52;23.60;;;10.32;;
22579;SDS011;11456;47.030;15.396;2023-12-20T04:04:19;22.08;;;11.05;;
22579;SDS011;11456;47.030;15.396;2023-12-20T04:06:46;23.35;;;11.15;;
22579;SDS011;11456;47.030;15.396;2023-12-20T04:09:13;21.95;;;11.40;;
22579;SDS011;11456;47.030;15.396;2023-12-20T04:11:39;25.40;;;11.00;;
22579;SDS011;11456;47.030;15.396;2023-12-20T04:14:06;24.85;;;11.50;;
22579;SDS011;11456;47.030;15.396;2023-12-20T04:16:34;24.40;;;11.60;;
22579;SDS011;11456;47.030;15.396;2023-12-20T04:19:00;23.27;;;10.98;;
22579;SDS011;11456;47.030;15.396;2023-12-20T04:21:27;26.92;;;11.27;;
22579;SDS011;11456;47.030;15.396;2023-12-20T04:23:54;21.40;;;11.23;;
22579;SDS011;11456;47.030;15.396;2023-12-20T04:26:21;21.60;;;11.48;;
22579;SDS011;11456;47.030;15.396;2023-12-20T04:28:48;23.42;;;10.93;;
22579;SDS011;11456;47.030;15.396;2023-12-20T04:31:17;27.95;;;11.57;;
22579;SDS011;11456;47.030;15.396;2023-12-20T04:33:43;24.17;;;10.52;;
22579;SDS011;11456;47.030;15.396;2023-12-20T04:36:10;24.38;;;11.88;;
22579;SDS011;11456;47.030;15.396;2023-12-20T04:38:37;21.35;;;11.25;;
22579;SDS011;11456;47.030;15.396;2023-12-20T04:41:03;33.17;;;12.85;;
22579;SDS011;11456;47.030;15.396;2023-12-20T04:43:30;26.58;;;11.55;;
22579;SDS011;11456;47.030;15.396;2023-12-20T04:45:57;23.70;;;12.13;;
22579;SDS011;11456;47.030;15.396;2023-12-20T04:48:23;25.75;;;12.18;;
22579;SDS011;11456;47.030;15.396;2023-12-20T04:50:50;28.13;;;12.57;;
22579;SDS011;11456;47.030;15.396;2023-12-20T04:53:17;23.00;;;11.70;;
22579;SDS011;11456;47.030;15.396;2023-12-20T04:55:43;28.38;;;12.32;;
22579;SDS011;11456;47.030;15.396;2023-12-20T04:58:10;24.95;;;11.48;;
22579;SDS011;11456;47.030;15.396;2023-12-20T05:00:36;25.20;;;11.77;;
22579;SDS011;11456;47.030;15.396;2023-12-20T05:03:03;24.30;;;10.93;;
22579;SDS011;11456;47.030;15.396;2023-12-20T05:05:30;25.30;;;11.68;;
22579;SDS011;11456;47.030;15.396;2023-12-20T05:07:58;23.38;;;11.43;;
22579;SDS011;11456;47.030;15.396;2023-12-20T05:10:25;22.60;;;11.15;;
22579;SDS011;11456;47.030;15.396;2023-12-20T05:12:53;24.58;;;11.63;;
22579;SDS011;11456;47.030;15.396;2023-12-20T05:15:20;37.33;;;16.65;;
22579;SDS011;11456;47.030;15.396;2023-12-20T05:17:46;26.08;;;13.75;;
22579;SDS011;11456;47.030;15.396;2023-12-20T05:20:14;27.85;;;12.70;;
22579;SDS011;11456;47.030;15.396;2023-12-20T05:22:41;24.60;;;12.60;;
22579;SDS011;11456;47.030;15.396;2023-12-20T05:25:07;30.10;;;12.57;;
22579;SDS011;11456;47.030;15.396;2023-12-20T05:27:34;42.10;;;19.42;;
22579;SDS011;11456;47.030;15.396;2023-12-20T05:30:01;28.83;;;12.75;;
22579;SDS011;11456;47.030;15.396;2023-12-20T05:32:28;29.15;;;12.10;;
22579;SDS011;11456;47.030;15.396;2023-12-20T05:34:55;26.30;;;11.98;;
22579;SDS011;11456;47.030;15.396;2023-12-20T05:37:22;21.80;;;10.75;;
22579;SDS011;11456;47.030;15.396;2023-12-20T05:39:48;22.05;;;10.60;;
22579;SDS011;11456;47.030;15.396;2023-12-20T05:42:15;21.75;;;10.25;;
22579;SDS011;11456;47.030;15.396;2023-12-20T05:44:42;21.58;;;10.70;;
22579;SDS011;11456;47.030;15.396;2023-12-20T05:47:09;25.35;;;10.93;;
22579;SDS011;11456;47.030;15.396;2023-12-20T05:49:35;25.73;;;10.20;;
22579;SDS011;11456;47.030;15.396;2023-12-20T05:52:02;21.10;;;10.63;;
22579;SDS011;11456;47.030;15.396;2023-12-20T05:54:29;24.25;;;11.00;;
22579;SDS011;11456;47.030;15.396;2023-12-20T05:56:56;19.98;;;11.05;;
22579;SDS011;11456;47.030;15.396;2023-12-20T05:59:23;24.48;;;11.73;;
22579;SDS011;11456;47.030;15.396;2023-12-20T06:01:50;25.35;;;12.50;;
22579;SDS011;11456;47.030;15.396;2023-12-20T06:04:17;31.92;;;13.50;;
22579;SDS011;11456;47.030;15.396;2023-12-20T06:06:43;26.20;;;12.77;;
22579;SDS011;11456;47.030;15.396;2023-12-20T06:09:11;35.72;;;12.77;;
22579;SDS011;11456;47.030;15.396;2023-12-20T06:11:37;26.60;;;13.20;;
22579;SDS011;11456;47.030;15.396;2023-12-20T06:14:04;28.90;;;13.75;;
22579;SDS011;11456;47.030;15.396;2023-12-20T06:16:31;34.25;;;15.32;;
22579;SDS011;11456;47.030;15.396;2023-12-20T06:18:57;32.78;;;14.85;;
22579;SDS011;11456;47.030;15.396;2023-12-20T06:21:24;34.03;;;15.30;;
22579;SDS011;11456;47.030;15.396;2023-12-20T06:23:51;32.22;;;14.73;;
22579;SDS011;11456;47.030;15.396;2023-12-20T06:26:17;33.47;;;15.73;;
22579;SDS011;11456;47.030;15.396;2023-12-20T06:28:44;34.33;;;14.13;;
22579;SDS011;11456;47.030;15.396;2023-12-20T06:31:11;26.45;;;13.75;;
22579;SDS011;11456;47.030;15.396;2023-12-20T06:33:38;29.17;;;12.40;;
22579;SDS011;11456;47.030;15.396;2023-12-20T06:36:07;22.95;;;11.43;;
22579;SDS011;11456;47.030;15.396;2023-12-20T06:38:37;24.67;;;11.23;;
22579;SDS011;11456;47.030;15.396;2023-12-20T06:41:03;22.75;;;12.43;;
22579;SDS011;11456;47.030;15.396;2023-12-20T06:43:30;26.98;;;13.35;;
22579;SDS011;11456;47.030;15.396;2023-12-20T06:46:14;24.77;;;11.95;;
22579;SDS011;11456;47.030;15.396;2023-12-20T06:48:41;24.23;;;12.40;;
22579;SDS011;11456;47.030;15.396;2023-12-20T06:51:11;25.88;;;11.68;;
22579;SDS011;11456;47.030;15.396;2023-12-20T06:53:38;25.40;;;11.18;;
22579;SDS011;11456;47.030;15.396;2023-12-20T06:56:05;25.00;;;11.80;;
22579;SDS011;11456;47.030;15.396;2023-12-20T06:58:33;21.85;;;11.82;;
22579;SDS011;11456;47.030;15.396;2023-12-20T07:01:00;23.83;;;11.90;;
22579;SDS011;11456;47.030;15.396;2023-12-20T07:03:27;24.42;;;12.27;;
22579;SDS011;11456;47.030;15.396;2023-12-20T07:05:54;27.67;;;11.40;;
22579;SDS011;11456;47.030;15.396;2023-12-20T07:08:20;21.50;;;11.43;;
22579;SDS011;11456;47.030;15.396;2023-12-20T07:10:47;25.98;;;11.50;;
22579;SDS011;11456;47.030;15.396;2023-12-20T07:13:13;22.27;;;11.48;;
22579;SDS011;11456;47.030;15.396;2023-12-20T07:15:40;27.00;;;10.68;;
22579;SDS011;11456;47.030;15.396;2023-12-20T07:18:07;24.95;;;11.73;;
22579;SDS011;11456;47.030;15.396;2023-12-20T07:20:34;24.88;;;12.07;;
22579;SDS011;11456;47.030;15.396;2023-12-20T07:23:01;29.60;;;13.10;;
22579;SDS011;11456;47.030;15.396;2023-12-20T07:25:27;24.25;;;12.27;;
22579;SDS011;11456;47.030;15.396;2023-12-20T07:27:54;27.13;;;12.50;;
22579;SDS011;11456;47.030;15.396;2023-12-20T07:30:21;23.25;;;11.30;;
22579;SDS011;11456;47.030;15.396;2023-12-20T07:32:48;26.92;;;11.52;;
22579;SDS011;11456;47.030;15.396;2023-12-20T07:35:15;26.00;;;11.77;;
22579;SDS011;11456;47.030;15.396;2023-12-20T07:37:42;25.67;;;11.85;;
22579;SDS011;11456;47.030;15.396;2023-12-20T07:40:10;26.80;;;11.95;;
22579;SDS011;11456;47.030;15.396;2023-12-20T07:42:37;27.27;;;12.23;;
22579;SDS011;11456;47.030;15.396;2023-12-20T07:45:04;34.40;;;13.88;;
22579;SDS011;11456;47.030;15.396;2023-12-20T07:47:31;36.30;;;15.23;;
22579;SDS011;11456;47.030;15.396;2023-12-20T07:49:58;33.05;;;14.38;;
22579;SDS011;11456;47.030;15.396;2023-12-20T07:52:24;27.67;;;12.98;;
22579;SDS011;11456;47.030;15.396;2023-12-20T07:54:52;28.02;;;12.73;;
22579;SDS011;11456;47.030;15.396;2023-12-20T07:57:19;28.02;;;13.35;;
22579;SDS011;11456;47.030;15.396;2023-12-20T07:59:46;34.50;;;13.90;;
22579;SDS011;11456;47.030;15.396;2023-12-20T08:02:13;27.48;;;12.48;;
22579;SDS011;11456;47.030;15.396;2023-12-20T08:04:39;26.83;;;11.70;;
22579;SDS011;11456;47.030;15.396;2023-12-20T08:07:07;30.45;;;12.70;;
22579;SDS011;11456;47.030;15.396;2023-12-20T08:09:34;33.15;;;13.20;;
22579;SDS011;11456;47.030;15.396;2023-12-20T08:12:03;26.42;;;13.80;;
22579;SDS011;11456;47.030;15.396;2023-12-20T08:14:30;34.08;;;14.63;;
22579;SDS011;11456;47.030;15.396;2023-12-20T08:16:57;33.13;;;14.43;;
22579;SDS011;11456;47.030;15.396;2023-12-20T08:19:24;31.17;;;13.60;;
22579;SDS011;11456;47.030;15.396;2023-12-20T08:21:51;30.45;;;13.32;;
22579;SDS011;11456;47.030;15.396;2023-12-20T08:24:17;33.75;;;15.63;;
22579;SDS011;11456;47.030;15.396;2023-12-20T08:26:44;32.45;;;14.82;;
22579;SDS011;11456;47.030;15.396;2023-12-20T08:29:13;33.83;;;15.13;;
22579;SDS011;11456;47.030;15.396;2023-12-20T08:31:40;33.85;;;16.00;;
22579;SDS011;11456;47.030;15.396;2023-12-20T08:34:07;33.13;;;15.77;;
22579;SDS011;11456;47.030;15.396;2023-12-20T08:36:34;42.30;;;17.60;;
22579;SDS011;11456;47.030;15.396;2023-12-20T08:39:01;45.72;;;21.17;;
22579;SDS011;11456;47.030;15.396;2023-12-20T08:41:29;42.25;;;21.10;;
22579;SDS011;11456;47.030;15.396;2023-12-20T08:43:56;42.67;;;20.15;;
22579;SDS011;11456;47.030;15.396;2023-12-20T08:46:23;52.03;;;21.25;;
22579;SDS011;11456;47.030;15.396;2023-12-20T08:48:50;45.63;;;17.85;;
22579;SDS011;11456;47.030;15.396;2023-12-20T08:51:17;44.25;;;17.88;;
22579;SDS011;11456;47.030;15.396;2023-12-20T08:53:44;43.20;;;16.80;;
22579;SDS011;11456;47.030;15.396;2023-12-20T08:56:12;38.53;;;16.65;;
22579;SDS011;11456;47.030;15.396;2023-12-20T08:58:38;38.38;;;17.63;;
22579;SDS011;11456;47.030;15.396;2023-12-20T09:01:06;37.40;;;16.67;;
22579;SDS011;11456;47.030;15.396;2023-12-20T09:03:34;33.92;;;16.38;;
22579;SDS011;11456;47.030;15.396;2023-12-20T09:06:01;34.97;;;16.02;;
22579;SDS011;11456;47.030;15.396;2023-12-20T09:08:27;29.52;;;14.57;;
22579;SDS011;11456;47.030;15.396;2023-12-20T09:10:54;30.80;;;14.93;;
22579;SDS011;11456;47.030;15.396;2023-12-20T09:13:21;32.33;;;15.50;;
22579;SDS011;11456;47.030;15.396;2023-12-20T09:15:48;27.35;;;14.05;;
22579;SDS011;11456;47.030;15.396;2023-12-20T09:18:15;27.20;;;13.48;;
22579;SDS011;11456;47.030;15.396;2023-12-20T09:20:42;28.80;;;14.48;;
22579;SDS011;11456;47.030;15.396;2023-12-20T09:23:10;30.92;;;13.55;;
22579;SDS011;11456;47.030;15.396;2023-12-20T09:25:37;30.70;;;14.40;;
22579;SDS011;11456;47.030;15.396;2023-12-20T09:28:04;28.73;;;14.45;;
22579;SDS011;11456;47.030;15.396;2023-12-20T09:30:31;33.70;;;16.17;;
22579;SDS011;11456;47.030;15.396;2023-12-20T09:32:58;31.52;;;15.70;;
22579;SDS011;11456;47.030;15.396;2023-12-20T09:35:24;47.55;;;19.75;;
22579;SDS011;11456;47.030;15.396;2023-12-20T09:37:53;45.47;;;20.33;;
22579;SDS011;11456;47.030;15.396;2023-12-20T09:40:19;44.63;;;21.10;;
22579;SDS011;11456;47.030;15.396;2023-12-20T09:45:23;52.78;;;20.33;;
22579;SDS011;11456;47.030;15.396;2023-12-20T09:47:52;51.13;;;23.88;;
22579;SDS011;11456;47.030;15.396;2023-12-20T09:50:21;50.58;;;23.95;;
22579;SDS011;11456;47.030;15.396;2023-12-20T09:52:51;48.08;;;23.50;;
22579;SDS011;11456;47.030;15.396;2023-12-20T09:55:19;49.53;;;22.92;;
22579;SDS011;11456;47.030;15.396;2023-12-20T09:57:47;52.33;;;22.90;;
22579;SDS011;11456;47.030;15.396;2023-12-20T10:00:15;54.45;;;23.77;;
22579;SDS011;11456;47.030;15.396;2023-12-20T10:03:01;46.00;;;22.73;;
22579;SDS011;11456;47.030;15.396;2023-12-20T10:05:31;50.15;;;21.33;;
22579;SDS011;11456;47.030;15.396;2023-12-20T10:08:00;51.70;;;22.63;;
22579;SDS011;11456;47.030;15.396;2023-12-20T10:10:28;47.95;;;22.05;;
22579;SDS011;11456;47.030;15.396;2023-12-20T10:13:10;42.22;;;21.50;;
22579;SDS011;11456;47.030;15.396;2023-12-20T10:15:39;48.42;;;23.35;;
22579;SDS011;11456;47.030;15.396;2023-12-20T10:18:08;50.42;;;23.25;;
22579;SDS011;11456;47.030;15.396;2023-12-20T10:20:34;56.95;;;23.25;;
22579;SDS011;11456;47.030;15.396;2023-12-20T10:23:01;47.30;;;20.73;;
22579;SDS011;11456;47.030;15.396;2023-12-20T10:25:28;41.63;;;20.70;;
22579;SDS011;11456;47.030;15.396;2023-12-20T10:28:08;47.08;;;21.67;;
22579;SDS011;11456;47.030;15.396;2023-12-20T10:30:37;47.25;;;21.45;;
22579;SDS011;11456;47.030;15.396;2023-12-20T10:33:07;44.80;;;20.88;;
22579;SDS011;11456;47.030;15.396;2023-12-20T10:35:35;40.30;;;20.20;;
22579;SDS011;11456;47.030;15.396;2023-12-20T10:38:04;46.53;;;20.55;;
22579;SDS011;11456;47.030;15.396;2023-12-20T10:40:36;44.10;;;20.42;;
22579;SDS011;11456;47.030;15.396;2023-12-20T10:43:04;43.05;;;20.08;;
22579;SDS011;11456;47.030;15.396;2023-12-20T10:45:32;41.58;;;21.20;;
22579;SDS011;11456;47.030;15.396;2023-12-20T10:47:58;45.65;;;20.95;;
22579;SDS011;11456;47.030;15.396;2023-12-20T10:50:28;46.92;;;21.08;;
22579;SDS011;11456;47.030;15.396;2023-12-20T10:52:56;42.65;;;21.35;;
22579;SDS011;11456;47.030;15.396;2023-12-20T10:55:24;45.58;;;22.00;;
22579;SDS011;11456;47.030;15.396;2023-12-20T10:57:51;48.13;;;22.33;;
22579;SDS011;11456;47.030;15.396;2023-12-20T11:00:19;42.28;;;21.35;;
22579;SDS011;11456;47.030;15.396;2023-12-20T11:02:48;46.97;;;21.08;;
22579;SDS011;11456;47.030;15.396;2023-12-20T11:05:22;48.83;;;23.98;;
22579;SDS011;11456;47.030;15.396;2023-12-20T11:07:57;47.10;;;21.25;;
22579;SDS011;11456;47.030;15.396;2023-12-20T11:13:30;46.75;;;21.27;;
22579;SDS011;11456;47.030;15.396;2023-12-20T11:16:00;48.72;;;19.65;;
22579;SDS011;11456;47.030;15.396;2023-12-20T11:18:29;38.10;;;21.15;;
22579;SDS011;11456;47.030;15.396;2023-12-20T11:21:00;45.35;;;21.05;;
22579;SDS011;11456;47.030;15.396;2023-12-20T11:23:29;47.00;;;21.88;;
22579;SDS011;11456;47.030;15.396;2023-12-20T11:25:57;40.22;;;21.60;;
22579;SDS011;11456;47.030;15.396;2023-12-20T11:28:25;40.92;;;21.65;;
22579;SDS011;11456;47.030;15.396;2023-12-20T11:30:54;40.45;;;20.98;;
22579;SDS011;11456;47.030;15.396;2023-12-20T11:33:23;47.53;;;21.17;;
22579;SDS011;11456;47.030;15.396;2023-12-20T11:35:56;53.40;;;23.20;;
22579;SDS011;11456;47.030;15.396;2023-12-20T11:38:23;56.83;;;26.02;;
22579;SDS011;11456;47.030;15.396;2023-12-20T11:40:51;54.20;;;25.58;;
22579;SDS011;11456;47.030;15.396;2023-12-20T11:43:29;64.47;;;27.88;;
22579;SDS011;11456;47.030;15.396;2023-12-20T11:46:02;50.45;;;24.60;;
22579;SDS011;11456;47.030;15.396;2023-12-20T11:48:39;60.72;;;26.02;;
22579;SDS011;11456;47.030;15.396;2023-12-20T11:51:11;67.13;;;28.13;;
22579;SDS011;11456;47.030;15.396;2023-12-20T11:53:41;54.15;;;26.23;;
22579;SDS011;11456;47.030;15.396;2023-12-20T11:56:11;62.45;;;29.65;;
22579;SDS011;11456;47.030;15.396;2023-12-20T11:58:38;50.75;;;22.95;;
22579;SDS011;11456;47.030;15.396;2023-12-20T12:01:05;44.92;;;22.63;;
22579;SDS011;11456;47.030;15.396;2023-12-20T12:03:35;44.65;;;22.27;;
22579;SDS011;11456;47.030;15.396;2023-12-20T12:06:02;50.20;;;21.83;;
22579;SDS011;11456;47.030;15.396;2023-12-20T12:08:31;47.95;;;21.67;;
22579;SDS011;11456;47.030;15.396;2023-12-20T12:10:58;40.85;;;20.77;;
22579;SDS011;11456;47.030;15.396;2023-12-20T12:13:25;44.47;;;21.33;;
22579;SDS011;11456;47.030;15.396;2023-12-20T12:15:54;48.65;;;21.73;;
22579;SDS011;11456;47.030;15.396;2023-12-20T12:18:20;39.97;;;20.63;;
22579;SDS011;11456;47.030;15.396;2023-12-20T12:20:48;38.85;;;20.52;;
22579;SDS011;11456;47.030;15.396;2023-12-20T12:23:14;38.58;;;17.42;;
22579;SDS011;11456;47.030;15.396;2023-12-20T12:25:50;37.15;;;18.55;;
22579;SDS011;11456;47.030;15.396;2023-12-20T12:28:17;40.53;;;18.30;;
22579;SDS011;11456;47.030;15.396;2023-12-20T12:30:55;39.92;;;17.27;;
22579;SDS011;11456;47.030;15.396;2023-12-20T12:33:24;38.25;;;18.92;;
22579;SDS011;11456;47.030;15.396;2023-12-20T12:35:54;42.05;;;19.92;;
22579;SDS011;11456;47.030;15.396;2023-12-20T12:38:21;44.13;;;20.35;;
22579;SDS011;11456;47.030;15.396;2023-12-20T12:40:49;57.05;;;21.75;;
22579;SDS011;11456;47.030;15.396;2023-12-20T12:43:16;51.30;;;22.30;;
22579;SDS011;11456;47.030;15.396;2023-12-20T12:45:43;45.15;;;21.70;;
22579;SDS011;11456;47.030;15.396;2023-12-20T12:48:10;53.53;;;20.58;;
22579;SDS011;11456;47.030;15.396;2023-12-20T12:50:37;48.80;;;21.13;;
22579;SDS011;11456;47.030;15.396;2023-12-20T12:53:03;47.95;;;21.20;;
22579;SDS011;11456;47.030;15.396;2023-12-20T12:55:30;42.95;;;20.08;;
22579;SDS011;11456;47.030;15.396;2023-12-20T12:57:57;43.80;;;20.17;;
22579;SDS011;11456;47.030;15.396;2023-12-20T13:00:24;47.55;;;21.42;;
22579;SDS011;11456;47.030;15.396;2023-12-20T13:02:52;47.78;;;20.92;;
22579;SDS011;11456;47.030;15.396;2023-12-20T13:05:19;49.25;;;21.10;;
22579;SDS011;11456;47.030;15.396;2023-12-20T13:07:46;58.13;;;20.90;;
22579;SDS011;11456;47.030;15.396;2023-12-20T13:10:13;52.53;;;22.08;;
22579;SDS011;11456;47.030;15.396;2023-12-20T13:12:43;42.53;;;20.83;;
22579;SDS011;11456;47.030;15.396;2023-12-20T13:15:10;41.53;;;20.10;;
22579;SDS011;11456;47.030;15.396;2023-12-20T13:17:36;50.95;;;21.52;;
22579;SDS011;11456;47.030;15.396;2023-12-20T13:20:04;48.88;;;20.50;;
22579;SDS011;11456;47.030;15.396;2023-12-20T13:22:32;49.53;;;21.70;;
22579;SDS011;11456;47.030;15.396;2023-12-20T13:24:59;55.55;;;22.23;;
22579;SDS011;11456;47.030;15.396;2023-12-20T13:27:26;50.53;;;22.75;;
22579;SDS011;11456;47.030;15.396;2023-12-20T13:29:53;60.25;;;22.33;;
22579;SDS011;11456;47.030;15.396;2023-12-20T13:32:19;42.67;;;20.88;;
22579;SDS011;11456;47.030;15.396;2023-12-20T13:34:46;52.00;;;20.02;;
22579;SDS011;11456;47.030;15.396;2023-12-20T13:37:14;41.35;;;19.15;;
22579;SDS011;11456;47.030;15.396;2023-12-20T13:39:41;53.15;;;19.42;;
22579;SDS011;11456;47.030;15.396;2023-12-20T13:42:07;40.38;;;19.92;;
22579;SDS011;11456;47.030;15.396;2023-12-20T13:44:34;52.55;;;19.10;;
22579;SDS011;11456;47.030;15.396;2023-12-20T13:47:01;48.83;;;20.77;;
22579;SDS011;11456;47.030;15.396;2023-12-20T13:49:28;45.95;;;20.08;;
22579;SDS011;11456;47.030;15.396;2023-12-20T13:51:55;52.75;;;20.05;;
22579;SDS011;11456;47.030;15.396;2023-12-20T13:54:24;42.35;;;19.77;;
22579;SDS011;11456;47.030;15.396;2023-12-20T13:56:51;44.50;;;19.77;;
22579;SDS011;11456;47.030;15.396;2023-12-20T13:59:34;38.17;;;19.05;;
22579;SDS011;11456;47.030;15.396;2023-12-20T14:02:01;49.88;;;20.90;;
22579;SDS011;11456;47.030;15.396;2023-12-20T14:04:30;44.67;;;19.80;;
22579;SDS011;11456;47.030;15.396;2023-12-20T14:07:08;43.95;;;19.15;;
22579;SDS011;11456;47.030;15.396;2023-12-20T14:09:37;42.78;;;20.63;;
22579;SDS011;11456;47.030;15.396;2023-12-20T14:12:04;43.90;;;19.73;;
22579;SDS011;11456;47.030;15.396;2023-12-20T14:14:31;46.78;;;20.55;;
22579;SDS011;11456;47.030;15.396;2023-12-20T14:16:58;49.92;;;19.88;;